Bass, Arkansas
Current Conditions -  °F | °C
As of 3:24 AM on Thursday 18 Dec 2014 (Local Time) from KHRO Reporting Station
Haze Haze  
Wind Chill: 25°   Ceiling: 200
Heat Index: 33°   Visibility: 5mi
Dew Point: 33°   Wind: 9mph
Humidity: 100%   Direction: 120°ESE
Pressure: 30.15"   Gusts: NA
Location:  35.9°N, 93°W
Report Text: KHRO 180924Z AUTO 12008KT 5SM BR OVC002 01/01 A3015 RMK AO2 T00060006
Loading
Personal Weather Stations






























Interactive Weather Map New forecast layout! Learn more

10-Day Weather Forecast

Advertisements
Track Severe Weather on mobile